sensor_id;sensor_type;location;lat;lon;timestamp;pressure;altitude;pressure_sealevel;temperature;humidity
51239;BME280;38154;47.548;18.828;2023-03-26T00:01:30;98246.00;;;5.22;100.00
51239;BME280;38154;47.548;18.828;2023-03-26T00:03:58;98245.94;;;5.17;100.00
51239;BME280;38154;47.548;18.828;2023-03-26T00:06:26;98240.69;;;5.12;100.00
51239;BME280;38154;47.548;18.828;2023-03-26T00:08:55;98245.78;;;5.06;100.00
51239;BME280;38154;47.548;18.828;2023-03-26T00:11:23;98240.63;;;5.08;100.00
51239;BME280;38154;47.548;18.828;2023-03-26T00:13:50;98243.22;;;5.09;100.00
51239;BME280;38154;47.548;18.828;2023-03-26T00:16:19;98242.28;;;5.04;100.00
51239;BME280;38154;47.548;18.828;2023-03-26T00:18:45;98238.94;;;5.10;100.00
51239;BME280;38154;47.548;18.828;2023-03-26T00:21:14;98241.66;;;5.20;100.00
51239;BME280;38154;47.548;18.828;2023-03-26T00:23:41;98237.34;;;5.21;100.00
51239;BME280;38154;47.548;18.828;2023-03-26T00:26:07;98241.59;;;5.16;100.00
51239;BME280;38154;47.548;18.828;2023-03-26T00:28:39;98239.81;;;5.10;100.00
51239;BME280;38154;47.548;18.828;2023-03-26T00:31:08;98241.56;;;5.11;100.00
51239;BME280;38154;47.548;18.828;2023-03-26T00:33:35;98245.78;;;5.06;100.00
51239;BME280;38154;47.548;18.828;2023-03-26T00:36:04;98244.78;;;4.96;100.00
51239;BME280;38154;47.548;18.828;2023-03-26T00:38:31;98238.69;;;4.93;100.00
51239;BME280;38154;47.548;18.828;2023-03-26T00:41:05;98232.53;;;4.83;100.00
51239;BME280;38154;47.548;18.828;2023-03-26T00:43:34;98235.03;;;4.78;100.00
51239;BME280;38154;47.548;18.828;2023-03-26T00:46:00;98229.84;;;4.78;100.00
51239;BME280;38154;47.548;18.828;2023-03-26T00:48:27;98221.31;;;4.84;100.00
51239;BME280;38154;47.548;18.828;2023-03-26T00:50:55;98232.56;;;4.86;100.00
51239;BME280;38154;47.548;18.828;2023-03-26T00:53:22;98229.09;;;4.86;100.00
51239;BME280;38154;47.548;18.828;2023-03-26T00:55:48;98227.38;;;4.85;100.00
51239;BME280;38154;47.548;18.828;2023-03-26T00:58:14;98221.16;;;4.72;100.00
51239;BME280;38154;47.548;18.828;2023-03-26T01:00:55;98222.91;;;4.73;100.00
51239;BME280;38154;47.548;18.828;2023-03-26T01:03:23;98220.22;;;4.67;100.00
51239;BME280;38154;47.548;18.828;2023-03-26T01:05:52;98234.25;;;4.84;100.00
51239;BME280;38154;47.548;18.828;2023-03-26T01:08:39;98233.25;;;4.74;100.00
51239;BME280;38154;47.548;18.828;2023-03-26T01:11:22;98227.13;;;4.69;100.00
51239;BME280;38154;47.548;18.828;2023-03-26T01:14:01;98227.16;;;4.71;100.00
51239;BME280;38154;47.548;18.828;2023-03-26T01:16:40;98226.91;;;4.55;100.00
51239;BME280;38154;47.548;18.828;2023-03-26T01:21:47;98230.94;;;4.38;100.00
51239;BME280;38154;47.548;18.828;2023-03-26T01:24:13;98232.50;;;4.30;100.00
51239;BME280;38154;47.548;18.828;2023-03-26T01:27:13;98225.41;;;4.18;100.00
51239;BME280;38154;47.548;18.828;2023-03-26T01:30:09;98225.22;;;4.07;100.00
51239;BME280;38154;47.548;18.828;2023-03-26T01:32:50;98234.53;;;3.97;100.00
51239;BME280;38154;47.548;18.828;2023-03-26T01:35:46;98232.75;;;3.96;100.00
51239;BME280;38154;47.548;18.828;2023-03-26T01:38:33;98236.00;;;3.86;100.00
51239;BME280;38154;47.548;18.828;2023-03-26T01:41:10;98228.91;;;3.74;100.00
51239;BME280;38154;47.548;18.828;2023-03-26T01:46:10;98215.06;;;3.69;100.00
51239;BME280;38154;47.548;18.828;2023-03-26T01:48:40;98215.03;;;3.67;100.00
51239;BME280;38154;47.548;18.828;2023-03-26T01:51:08;98209.81;;;3.64;100.00
51239;BME280;38154;47.548;18.828;2023-03-26T01:53:42;98207.22;;;3.64;100.00
51239;BME280;38154;47.548;18.828;2023-03-26T01:59:11;98225.44;;;3.74;100.00
51239;BME280;38154;47.548;18.828;2023-03-26T02:02:25;98218.63;;;3.76;100.00
51239;BME280;38154;47.548;18.828;2023-03-26T02:04:53;98227.22;;;3.76;100.00
51239;BME280;38154;47.548;18.828;2023-03-26T02:07:42;98226.38;;;3.76;100.00
51239;BME280;38154;47.548;18.828;2023-03-26T02:10:25;98227.03;;;3.65;100.00
51239;BME280;38154;47.548;18.828;2023-03-26T02:12:52;98233.00;;;3.64;100.00
51239;BME280;38154;47.548;18.828;2023-03-26T02:15:19;98228.66;;;3.62;100.00
51239;BME280;38154;47.548;18.828;2023-03-26T02:17:45;98230.31;;;3.58;100.00
51239;BME280;38154;47.548;18.828;2023-03-26T02:20:13;98228.88;;;3.72;100.00
51239;BME280;38154;47.548;18.828;2023-03-26T02:22:40;98231.59;;;3.80;100.00
51239;BME280;38154;47.548;18.828;2023-03-26T02:25:13;98232.59;;;3.88;100.00
51239;BME280;38154;47.548;18.828;2023-03-26T02:27:40;98233.59;;;3.95;100.00
51239;BME280;38154;47.548;18.828;2023-03-26T02:30:08;98224.19;;;3.97;100.00
51239;BME280;38154;47.548;18.828;2023-03-26T02:32:35;98229.44;;;4.03;100.00
51239;BME280;38154;47.548;18.828;2023-03-26T02:35:01;98214.84;;;4.02;100.00
51239;BME280;38154;47.548;18.828;2023-03-26T02:37:27;98218.16;;;3.97;100.00
51239;BME280;38154;47.548;18.828;2023-03-26T02:39:55;98217.34;;;3.99;100.00
51239;BME280;38154;47.548;18.828;2023-03-26T02:42:20;98214.88;;;4.04;100.00
51239;BME280;38154;47.548;18.828;2023-03-26T02:44:46;98207.03;;;3.99;100.00
51239;BME280;38154;47.548;18.828;2023-03-26T02:47:12;98194.84;;;3.92;100.00
51239;BME280;38154;47.548;18.828;2023-03-26T02:49:38;98206.94;;;3.95;100.00
51239;BME280;38154;47.548;18.828;2023-03-26T02:52:04;98204.41;;;3.98;100.00
51239;BME280;38154;47.548;18.828;2023-03-26T02:54:32;98197.59;;;4.01;100.00
51239;BME280;38154;47.548;18.828;2023-03-26T02:56:59;98198.41;;;3.97;100.00
51239;BME280;38154;47.548;18.828;2023-03-26T02:59:25;98206.91;;;3.93;100.00
51239;BME280;38154;47.548;18.828;2023-03-26T03:01:51;98201.75;;;3.93;100.00
51239;BME280;38154;47.548;18.828;2023-03-26T03:04:17;98208.59;;;3.91;100.00
51239;BME280;38154;47.548;18.828;2023-03-26T03:06:44;98198.22;;;3.88;100.00
51239;BME280;38154;47.548;18.828;2023-03-26T03:09:10;98200.69;;;3.83;100.00
51239;BME280;38154;47.548;18.828;2023-03-26T03:11:38;98195.47;;;3.79;100.00
51239;BME280;38154;47.548;18.828;2023-03-26T03:14:04;98201.34;;;3.71;100.00
51239;BME280;38154;47.548;18.828;2023-03-26T03:16:30;98201.19;;;3.62;100.00
51239;BME280;38154;47.548;18.828;2023-03-26T03:18:57;98201.84;;;3.52;100.00
51239;BME280;38154;47.548;18.828;2023-03-26T03:21:24;98198.28;;;3.47;100.00
51239;BME280;38154;47.548;18.828;2023-03-26T03:23:52;98203.47;;;3.48;100.00
51239;BME280;38154;47.548;18.828;2023-03-26T03:26:19;98200.00;;;3.46;100.00
51239;BME280;38154;47.548;18.828;2023-03-26T03:28:47;98203.28;;;3.39;100.00
51239;BME280;38154;47.548;18.828;2023-03-26T03:31:14;98186.16;;;3.41;100.00
51239;BME280;38154;47.548;18.828;2023-03-26T03:33:41;98184.41;;;3.40;100.00
51239;BME280;38154;47.548;18.828;2023-03-26T03:36:09;98197.28;;;3.40;100.00
51239;BME280;38154;47.548;18.828;2023-03-26T03:38:40;98198.09;;;3.38;100.00
51239;BME280;38154;47.548;18.828;2023-03-26T03:41:06;98197.09;;;3.31;100.00
51239;BME280;38154;47.548;18.828;2023-03-26T03:43:33;98204.06;;;3.33;100.00
51239;BME280;38154;47.548;18.828;2023-03-26T03:45:59;98200.84;;;3.47;100.00
51239;BME280;38154;47.548;18.828;2023-03-26T03:48:26;98199.81;;;3.37;100.00
51239;BME280;38154;47.548;18.828;2023-03-26T03:50:53;98199.84;;;3.40;100.00
51239;BME280;38154;47.548;18.828;2023-03-26T03:53:22;98203.38;;;3.42;100.00
51239;BME280;38154;47.548;18.828;2023-03-26T03:55:54;98212.06;;;3.47;100.00
51239;BME280;38154;47.548;18.828;2023-03-26T03:58:22;98212.00;;;3.44;100.00
51239;BME280;38154;47.548;18.828;2023-03-26T04:00:50;98234.34;;;3.45;100.00
51239;BME280;38154;47.548;18.828;2023-03-26T04:03:17;98226.41;;;3.36;100.00
51239;BME280;38154;47.548;18.828;2023-03-26T04:05:44;98226.13;;;3.22;100.00
51239;BME280;38154;47.548;18.828;2023-03-26T04:08:20;98223.56;;;3.22;100.00
51239;BME280;38154;47.548;18.828;2023-03-26T04:10:46;98227.75;;;3.17;100.00
51239;BME280;38154;47.548;18.828;2023-03-26T04:13:14;98228.84;;;3.30;100.00
51239;BME280;38154;47.548;18.828;2023-03-26T04:15:41;98219.59;;;3.38;100.00
51239;BME280;38154;47.548;18.828;2023-03-26T04:18:08;98224.66;;;3.33;100.00
51239;BME280;38154;47.548;18.828;2023-03-26T04:20:38;98223.09;;;3.42;100.00
51239;BME280;38154;47.548;18.828;2023-03-26T04:23:07;98213.91;;;3.55;100.00
51239;BME280;38154;47.548;18.828;2023-03-26T04:25:33;98213.16;;;3.60;100.00
51239;BME280;38154;47.548;18.828;2023-03-26T04:28:06;98207.59;;;3.39;100.00
51239;BME280;38154;47.548;18.828;2023-03-26T04:30:33;98211.06;;;3.41;100.00
51239;BME280;38154;47.548;18.828;2023-03-26T04:33:01;98201.75;;;3.47;100.00
51239;BME280;38154;47.548;18.828;2023-03-26T04:35:31;98209.28;;;3.38;100.00
51239;BME280;38154;47.548;18.828;2023-03-26T04:38:03;98210.53;;;3.57;100.00
51239;BME280;38154;47.548;18.828;2023-03-26T04:40:32;98213.19;;;3.62;100.00
51239;BME280;38154;47.548;18.828;2023-03-26T04:43:00;98207.78;;;3.49;100.00
51239;BME280;38154;47.548;18.828;2023-03-26T04:45:28;98210.28;;;3.45;100.00
51239;BME280;38154;47.548;18.828;2023-03-26T04:47:58;98217.34;;;3.55;100.00
51239;BME280;38154;47.548;18.828;2023-03-26T04:50:24;98224.78;;;3.82;100.00
51239;BME280;38154;47.548;18.828;2023-03-26T04:52:52;98213.75;;;3.91;100.00
51239;BME280;38154;47.548;18.828;2023-03-26T04:55:40;98216.87;;;4.22;100.00
51239;BME280;38154;47.548;18.828;2023-03-26T04:58:09;98215.53;;;4.44;100.00
51239;BME280;38154;47.548;18.828;2023-03-26T05:00:39;98209.03;;;4.66;100.00
51239;BME280;38154;47.548;18.828;2023-03-26T05:03:08;98219.53;;;4.78;100.00
51239;BME280;38154;47.548;18.828;2023-03-26T05:05:34;98212.91;;;4.97;100.00
51239;BME280;38154;47.548;18.828;2023-03-26T05:08:01;98217.34;;;5.08;100.00
51239;BME280;38154;47.548;18.828;2023-03-26T05:10:27;98208.25;;;5.34;100.00
51239;BME280;38154;47.548;18.828;2023-03-26T05:12:53;98216.22;;;5.53;100.00
51239;BME280;38154;47.548;18.828;2023-03-26T05:15:19;98210.31;;;5.62;100.00
51239;BME280;38154;47.548;18.828;2023-03-26T05:17:44;98211.28;;;5.73;100.00
51239;BME280;38154;47.548;18.828;2023-03-26T05:20:19;98211.53;;;5.94;100.00
51239;BME280;38154;47.548;18.828;2023-03-26T05:22:47;98202.25;;;6.09;100.00
51239;BME280;38154;47.548;18.828;2023-03-26T05:25:13;98204.91;;;6.20;100.00
51239;BME280;38154;47.548;18.828;2023-03-26T05:27:40;98201.53;;;6.25;100.00
51239;BME280;38154;47.548;18.828;2023-03-26T05:30:06;98214.06;;;6.82;100.00
51239;BME280;38154;47.548;18.828;2023-03-26T05:32:32;98209.91;;;7.09;100.00
51239;BME280;38154;47.548;18.828;2023-03-26T05:34:59;98216.84;;;7.11;100.00
51239;BME280;38154;47.548;18.828;2023-03-26T05:37:27;98218.56;;;7.08;100.00
51239;BME280;38154;47.548;18.828;2023-03-26T05:39:56;98211.69;;;7.11;100.00
51239;BME280;38154;47.548;18.828;2023-03-26T05:42:22;98209.22;;;7.37;100.00
51239;BME280;38154;47.548;18.828;2023-03-26T05:44:48;98220.66;;;7.81;99.14
51239;BME280;38154;47.548;18.828;2023-03-26T05:47:14;98215.56;;;8.32;93.38
51239;BME280;38154;47.548;18.828;2023-03-26T05:49:40;98214.75;;;8.71;88.69
51239;BME280;38154;47.548;18.828;2023-03-26T05:52:06;98212.09;;;9.15;86.81
51239;BME280;38154;47.548;18.828;2023-03-26T05:54:32;98217.19;;;9.50;85.00
51239;BME280;38154;47.548;18.828;2023-03-26T05:56:58;98213.59;;;9.82;82.95
51239;BME280;38154;47.548;18.828;2023-03-26T05:59:24;98215.97;;;11.30;74.12
51239;BME280;38154;47.548;18.828;2023-03-26T06:01:51;98222.47;;;12.93;65.02
51239;BME280;38154;47.548;18.828;2023-03-26T06:04:19;98227.34;;;13.63;62.59
51239;BME280;38154;47.548;18.828;2023-03-26T06:06:45;98223.22;;;13.49;61.63
51239;BME280;38154;47.548;18.828;2023-03-26T06:09:11;98222.78;;;13.72;59.09
51239;BME280;38154;47.548;18.828;2023-03-26T06:11:38;98212.56;;;13.10;60.34
51239;BME280;38154;47.548;18.828;2023-03-26T06:14:05;98220.53;;;12.51;62.23
51239;BME280;38154;47.548;18.828;2023-03-26T06:16:32;98212.31;;;11.45;66.76
51239;BME280;38154;47.548;18.828;2023-03-26T06:18:58;98220.75;;;10.84;71.43
51239;BME280;38154;47.548;18.828;2023-03-26T06:21:24;98213.12;;;10.62;73.91
51239;BME280;38154;47.548;18.828;2023-03-26T06:23:51;98225.16;;;10.80;75.49
51239;BME280;38154;47.548;18.828;2023-03-26T06:26:17;98211.41;;;12.77;66.20
51239;BME280;38154;47.548;18.828;2023-03-26T06:28:43;98218.09;;;13.87;64.12
51239;BME280;38154;47.548;18.828;2023-03-26T06:31:08;98220.25;;;14.47;57.00
51239;BME280;38154;47.548;18.828;2023-03-26T06:33:34;98226.88;;;12.91;62.33
51239;BME280;38154;47.548;18.828;2023-03-26T06:36:00;98236.56;;;11.58;67.91
51239;BME280;38154;47.548;18.828;2023-03-26T06:38:26;98229.41;;;10.90;71.34
51239;BME280;38154;47.548;18.828;2023-03-26T06:40:52;98232.78;;;11.02;73.08
51239;BME280;38154;47.548;18.828;2023-03-26T06:43:18;98232.50;;;15.20;60.16
51239;BME280;38154;47.548;18.828;2023-03-26T06:45:44;98230.88;;;17.47;50.86
51239;BME280;38154;47.548;18.828;2023-03-26T06:48:10;98226.75;;;18.36;45.50
51239;BME280;38154;47.548;18.828;2023-03-26T06:50:36;98234.09;;;19.16;43.71
51239;BME280;38154;47.548;18.828;2023-03-26T06:53:01;98237.59;;;19.58;42.46
51239;BME280;38154;47.548;18.828;2023-03-26T06:55:27;98240.56;;;18.43;44.51
51239;BME280;38154;47.548;18.828;2023-03-26T06:57:54;98230.00;;;17.97;46.20
51239;BME280;38154;47.548;18.828;2023-03-26T07:00:21;98239.34;;;17.57;46.92
51239;BME280;38154;47.548;18.828;2023-03-26T07:02:47;98231.34;;;16.25;49.90
51239;BME280;38154;47.548;18.828;2023-03-26T07:05:13;98235.47;;;15.72;53.84
51239;BME280;38154;47.548;18.828;2023-03-26T07:07:39;98230.00;;;16.40;53.23
51239;BME280;38154;47.548;18.828;2023-03-26T07:10:06;98226.44;;;17.73;48.36
51239;BME280;38154;47.548;18.828;2023-03-26T07:12:32;98236.34;;;20.25;42.92
51239;BME280;38154;47.548;18.828;2023-03-26T07:14:59;98244.25;;;20.82;40.04
51239;BME280;38154;47.548;18.828;2023-03-26T07:17:26;98244.19;;;19.27;43.84
51239;BME280;38154;47.548;18.828;2023-03-26T07:19:52;98242.31;;;18.20;46.43
51239;BME280;38154;47.548;18.828;2023-03-26T07:22:21;98251.41;;;19.23;44.66
51239;BME280;38154;47.548;18.828;2023-03-26T07:24:48;98246.66;;;19.73;42.62
51239;BME280;38154;47.548;18.828;2023-03-26T07:29:59;98247.13;;;19.21;40.04
51239;BME280;38154;47.548;18.828;2023-03-26T07:32:29;98247.59;;;16.67;46.47
51239;BME280;38154;47.548;18.828;2023-03-26T07:35:21;98244.97;;;15.12;49.20
51239;BME280;38154;47.548;18.828;2023-03-26T07:43:42;98245.16;;;12.92;58.56
51239;BME280;38154;47.548;18.828;2023-03-26T07:46:12;98242.25;;;12.56;59.45
51239;BME280;38154;47.548;18.828;2023-03-26T07:48:43;98242.63;;;12.32;62.39
51239;BME280;38154;47.548;18.828;2023-03-26T07:51:12;98243.78;;;12.09;62.97
51239;BME280;38154;47.548;18.828;2023-03-26T07:53:38;98243.03;;;12.01;63.74
51239;BME280;38154;47.548;18.828;2023-03-26T07:56:14;98244.94;;;11.86;64.72
51239;BME280;38154;47.548;18.828;2023-03-26T08:07:02;98238.75;;;11.97;63.65
51239;BME280;38154;47.548;18.828;2023-03-26T08:10:07;98238.03;;;11.79;64.41
51239;BME280;38154;47.548;18.828;2023-03-26T08:21:12;98227.50;;;11.88;66.51
51239;BME280;38154;47.548;18.828;2023-03-26T08:26:41;98229.69;;;12.21;63.90
51239;BME280;38154;47.548;18.828;2023-03-26T08:29:46;98233.03;;;12.32;63.06
51239;BME280;38154;47.548;18.828;2023-03-26T08:32:19;98224.19;;;12.39;62.25
51239;BME280;38154;47.548;18.828;2023-03-26T08:34:45;98230.97;;;12.53;61.69
51239;BME280;38154;47.548;18.828;2023-03-26T08:37:12;98224.75;;;12.58;64.17
51239;BME280;38154;47.548;18.828;2023-03-26T08:39:38;98221.16;;;12.67;62.33
51239;BME280;38154;47.548;18.828;2023-03-26T08:56:10;98216.47;;;13.38;58.57
51239;BME280;38154;47.548;18.828;2023-03-26T09:07:23;98213.44;;;14.40;55.29
51239;BME280;38154;47.548;18.828;2023-03-26T09:10:18;98225.50;;;14.87;52.97
51239;BME280;38154;47.548;18.828;2023-03-26T09:13:13;98217.34;;;14.97;53.86
51239;BME280;38154;47.548;18.828;2023-03-26T09:21:18;98207.47;;;14.71;53.22
51239;BME280;38154;47.548;18.828;2023-03-26T09:24:09;98208.06;;;15.50;51.44
51239;BME280;38154;47.548;18.828;2023-03-26T09:26:49;98205.72;;;16.31;49.26
51239;BME280;38154;47.548;18.828;2023-03-26T09:37:59;98203.91;;;21.12;39.07
51239;BME280;38154;47.548;18.828;2023-03-26T09:40:36;98195.03;;;21.81;36.98
51239;BME280;38154;47.548;18.828;2023-03-26T09:52:13;98184.09;;;25.63;29.74
51239;BME280;38154;47.548;18.828;2023-03-26T09:57:28;98162.38;;;24.63;30.37
51239;BME280;38154;47.548;18.828;2023-03-26T10:10:52;98139.38;;;20.23;36.94
51239;BME280;38154;47.548;18.828;2023-03-26T10:13:30;98144.50;;;19.31;36.91
51239;BME280;38154;47.548;18.828;2023-03-26T10:21:49;98134.03;;;17.29;41.13
51239;BME280;38154;47.548;18.828;2023-03-26T10:24:23;98129.41;;;16.31;43.52
51239;BME280;38154;47.548;18.828;2023-03-26T10:26:58;98124.09;;;15.76;45.68
51239;BME280;38154;47.548;18.828;2023-03-26T10:34:57;98116.50;;;16.24;48.74
51239;BME280;38154;47.548;18.828;2023-03-26T10:57:02;98090.31;;;17.94;48.89
51239;BME280;38154;47.548;18.828;2023-03-26T10:59:30;98093.66;;;18.20;46.11
51239;BME280;38154;47.548;18.828;2023-03-26T11:13:01;98052.00;;;18.28;42.32
51239;BME280;38154;47.548;18.828;2023-03-26T11:15:34;98056.03;;;19.95;41.45
51239;BME280;38154;47.548;18.828;2023-03-26T11:18:15;98051.63;;;20.67;38.76
51239;BME280;38154;47.548;18.828;2023-03-26T11:23:45;98052.13;;;21.08;35.94
51239;BME280;38154;47.548;18.828;2023-03-26T11:26:14;98038.59;;;20.45;37.90
51239;BME280;38154;47.548;18.828;2023-03-26T11:32:15;98028.38;;;19.64;40.87
51239;BME280;38154;47.548;18.828;2023-03-26T11:34:52;98023.53;;;19.55;41.28
51239;BME280;38154;47.548;18.828;2023-03-26T11:37:30;98013.25;;;19.11;41.86
51239;BME280;38154;47.548;18.828;2023-03-26T11:39:58;98006.66;;;18.80;42.17
51239;BME280;38154;47.548;18.828;2023-03-26T11:42:26;98015.47;;;17.96;42.97
51239;BME280;38154;47.548;18.828;2023-03-26T11:44:57;98006.88;;;17.23;44.45
51239;BME280;38154;47.548;18.828;2023-03-26T11:48:11;97994.09;;;17.80;44.74
51239;BME280;38154;47.548;18.828;2023-03-26T11:50:24;97993.34;;;18.62;43.01
51239;BME280;38154;47.548;18.828;2023-03-26T11:52:50;97988.66;;;20.02;39.97
51239;BME280;38154;47.548;18.828;2023-03-26T11:55:16;97979.22;;;21.00;38.60
51239;BME280;38154;47.548;18.828;2023-03-26T11:57:51;97978.06;;;21.85;35.38
51239;BME280;38154;47.548;18.828;2023-03-26T12:00:20;97957.28;;;21.77;35.28
51239;BME280;38154;47.548;18.828;2023-03-26T12:02:56;97960.53;;;21.66;35.55
51239;BME280;38154;47.548;18.828;2023-03-26T12:05:25;97966.37;;;21.57;37.03
51239;BME280;38154;47.548;18.828;2023-03-26T12:07:54;97954.25;;;20.02;37.14
51239;BME280;38154;47.548;18.828;2023-03-26T12:12:53;97943.66;;;19.29;38.33
51239;BME280;38154;47.548;18.828;2023-03-26T12:15:20;97935.34;;;18.20;41.31
51239;BME280;38154;47.548;18.828;2023-03-26T12:17:49;97934.50;;;17.76;42.27
51239;BME280;38154;47.548;18.828;2023-03-26T12:22:52;97922.38;;;17.50;43.08
51239;BME280;38154;47.548;18.828;2023-03-26T12:25:28;97917.97;;;17.51;41.84
51239;BME280;38154;47.548;18.828;2023-03-26T12:33:27;97895.88;;;16.87;43.28
51239;BME280;38154;47.548;18.828;2023-03-26T12:35:55;97893.50;;;16.56;42.22
51239;BME280;38154;47.548;18.828;2023-03-26T12:41:12;97887.13;;;16.86;43.34
51239;BME280;38154;47.548;18.828;2023-03-26T12:43:53;97880.84;;;17.13;42.47
51239;BME280;38154;47.548;18.828;2023-03-26T12:46:33;97879.38;;;16.82;42.90
51239;BME280;38154;47.548;18.828;2023-03-26T12:49:03;97875.13;;;16.30;40.17
51239;BME280;38154;47.548;18.828;2023-03-26T13:05:27;97859.25;;;16.08;41.29
51239;BME280;38154;47.548;18.828;2023-03-26T13:17:03;97828.59;;;16.09;41.02
51239;BME280;38154;47.548;18.828;2023-03-26T13:25:07;97823.03;;;16.40;37.43
51239;BME280;38154;47.548;18.828;2023-03-26T13:27:50;97814.88;;;16.24;37.70
51239;BME280;38154;47.548;18.828;2023-03-26T13:30:32;97814.28;;;16.40;38.35
51239;BME280;38154;47.548;18.828;2023-03-26T13:44:14;97792.00;;;16.26;37.31
51239;BME280;38154;47.548;18.828;2023-03-26T13:46:48;97790.84;;;16.33;37.41
51239;BME280;38154;47.548;18.828;2023-03-26T13:49:40;97791.97;;;16.50;38.35
51239;BME280;38154;47.548;18.828;2023-03-26T13:52:24;97786.19;;;16.40;37.60
51239;BME280;38154;47.548;18.828;2023-03-26T13:55:18;97774.81;;;16.40;38.43
51239;BME280;38154;47.548;18.828;2023-03-26T14:00:46;97767.53;;;16.24;38.36
51239;BME280;38154;47.548;18.828;2023-03-26T14:05:58;97751.78;;;16.23;37.86
51239;BME280;38154;47.548;18.828;2023-03-26T14:08:36;97751.56;;;16.29;37.59
51239;BME280;38154;47.548;18.828;2023-03-26T14:11:16;97753.22;;;16.31;38.13
51239;BME280;38154;47.548;18.828;2023-03-26T14:13:53;97742.78;;;16.28;37.77
51239;BME280;38154;47.548;18.828;2023-03-26T14:16:26;97742.41;;;15.92;38.88
51239;BME280;38154;47.548;18.828;2023-03-26T14:19:17;97736.72;;;15.81;39.62
51239;BME280;38154;47.548;18.828;2023-03-26T14:25:06;97739.78;;;15.92;40.37
51239;BME280;38154;47.548;18.828;2023-03-26T14:39:12;97717.56;;;15.77;39.34
51239;BME280;38154;47.548;18.828;2023-03-26T14:41:51;97717.06;;;15.66;41.23
51239;BME280;38154;47.548;18.828;2023-03-26T14:47:18;97699.50;;;15.43;41.94
51239;BME280;38154;47.548;18.828;2023-03-26T14:49:48;97699.09;;;15.53;41.48
51239;BME280;38154;47.548;18.828;2023-03-26T14:52:32;97696.63;;;15.74;41.05
51239;BME280;38154;47.548;18.828;2023-03-26T14:55:13;97689.28;;;15.84;41.28
51239;BME280;38154;47.548;18.828;2023-03-26T15:21:05;97656.03;;;15.09;43.15
51239;BME280;38154;47.548;18.828;2023-03-26T15:34:45;97634.28;;;14.80;43.99
51239;BME280;38154;47.548;18.828;2023-03-26T15:37:52;97625.75;;;14.73;43.89
51239;BME280;38154;47.548;18.828;2023-03-26T15:43:13;97621.59;;;14.66;44.96
51239;BME280;38154;47.548;18.828;2023-03-26T16:02:28;97591.00;;;14.40;42.28
51239;BME280;38154;47.548;18.828;2023-03-26T16:10:49;97564.97;;;14.07;43.53
51239;BME280;38154;47.548;18.828;2023-03-26T16:13:21;97560.03;;;13.98;44.46
51239;BME280;38154;47.548;18.828;2023-03-26T16:15:55;97562.97;;;13.87;44.37
51239;BME280;38154;47.548;18.828;2023-03-26T16:18:32;97551.97;;;13.76;45.03
51239;BME280;38154;47.548;18.828;2023-03-26T16:31:25;97547.59;;;13.16;48.07
51239;BME280;38154;47.548;18.828;2023-03-26T16:34:16;97543.53;;;13.06;48.78
51239;BME280;38154;47.548;18.828;2023-03-26T16:36:44;97541.03;;;13.02;49.47
51239;BME280;38154;47.548;18.828;2023-03-26T16:39:23;97542.97;;;12.95;48.91
51239;BME280;38154;47.548;18.828;2023-03-26T16:42:25;97538.78;;;12.89;49.03
51239;BME280;38154;47.548;18.828;2023-03-26T16:45:23;97537.84;;;12.90;48.97
51239;BME280;38154;47.548;18.828;2023-03-26T16:48:19;97551.22;;;12.81;49.22
51239;BME280;38154;47.548;18.828;2023-03-26T16:51:11;97538.28;;;12.75;49.27
51239;BME280;38154;47.548;18.828;2023-03-26T17:01:23;97533.59;;;12.55;49.33
51239;BME280;38154;47.548;18.828;2023-03-26T17:04:04;97535.44;;;12.51;49.38
51239;BME280;38154;47.548;18.828;2023-03-26T17:09:58;97539.91;;;12.48;48.98
51239;BME280;38154;47.548;18.828;2023-03-26T17:23:31;97548.19;;;12.31;49.52
51239;BME280;38154;47.548;18.828;2023-03-26T17:26:23;97543.69;;;12.36;49.26
51239;BME280;38154;47.548;18.828;2023-03-26T17:29:03;97539.16;;;12.42;48.81
51239;BME280;38154;47.548;18.828;2023-03-26T17:31:39;97547.81;;;12.44;49.42
51239;BME280;38154;47.548;18.828;2023-03-26T17:37:04;97538.13;;;12.48;49.64
51239;BME280;38154;47.548;18.828;2023-03-26T17:44:54;97537.97;;;12.54;50.19
51239;BME280;38154;47.548;18.828;2023-03-26T17:50:02;97536.97;;;12.58;50.76
51239;BME280;38154;47.548;18.828;2023-03-26T17:52:56;97543.12;;;12.57;51.31
51239;BME280;38154;47.548;18.828;2023-03-26T17:55:31;97548.47;;;12.53;51.38
51239;BME280;38154;47.548;18.828;2023-03-26T17:58:00;97543.28;;;12.51;51.27
51239;BME280;38154;47.548;18.828;2023-03-26T18:00:44;97550.19;;;12.54;51.70
51239;BME280;38154;47.548;18.828;2023-03-26T18:03:20;97545.97;;;12.48;51.93
51239;BME280;38154;47.548;18.828;2023-03-26T18:05:52;97539.81;;;12.51;51.75
51239;BME280;38154;47.548;18.828;2023-03-26T18:08:40;97539.91;;;12.48;51.87
51239;BME280;38154;47.548;18.828;2023-03-26T18:14:16;97539.22;;;12.39;53.97
51239;BME280;38154;47.548;18.828;2023-03-26T18:16:50;97534.78;;;12.43;52.18
51239;BME280;38154;47.548;18.828;2023-03-26T18:19:19;97525.94;;;12.49;52.08
51239;BME280;38154;47.548;18.828;2023-03-26T18:21:49;97528.50;;;12.50;52.88
51239;BME280;38154;47.548;18.828;2023-03-26T18:24:31;97528.50;;;12.50;52.64
51239;BME280;38154;47.548;18.828;2023-03-26T18:29:29;97517.94;;;12.53;52.57
51239;BME280;38154;47.548;18.828;2023-03-26T18:32:18;97517.94;;;12.53;52.63
51239;BME280;38154;47.548;18.828;2023-03-26T18:34:49;97503.97;;;12.54;52.79
51239;BME280;38154;47.548;18.828;2023-03-26T18:37:23;97501.41;;;12.53;52.75
51239;BME280;38154;47.548;18.828;2023-03-26T18:40:08;97503.22;;;12.51;52.64
51239;BME280;38154;47.548;18.828;2023-03-26T18:42:39;97492.78;;;12.49;53.01
51239;BME280;38154;47.548;18.828;2023-03-26T18:45:08;97496.44;;;12.43;53.20